createdAt,value
2022-09-09T00:08:40.299Z,98332.08
2022-09-09T00:19:18.771Z,98331.56
2022-09-09T00:29:49.666Z,98332.50
2022-09-09T00:40:24.911Z,98335.48
2022-09-09T00:51:01.231Z,98337.50
2022-09-09T01:01:29.161Z,98350.83
2022-09-09T01:12:04.267Z,98364.05
2022-09-09T01:22:42.518Z,98369.41
2022-09-09T01:33:16.529Z,98374.48
2022-09-09T01:43:44.505Z,98386.04
2022-09-09T01:54:12.838Z,98383.63
2022-09-09T02:04:46.776Z,98389.61
2022-09-09T02:15:23.123Z,98389.88
2022-09-09T02:25:54.049Z,98396.95
2022-09-09T02:36:25.433Z,98406.33
2022-09-09T02:47:15.520Z,98412.82
2022-09-09T02:57:46.546Z,98418.95
2022-09-09T03:08:15.180Z,98431.70
2022-09-09T03:18:43.772Z,98432.36
2022-09-09T03:29:13.453Z,98437.98
2022-09-09T03:39:41.412Z,98440.06
2022-09-09T03:50:12.178Z,98448.02
2022-09-09T04:00:43.498Z,98453.54
2022-09-09T04:11:11.666Z,98463.67
2022-09-09T04:21:40.818Z,98466.74
2022-09-09T04:32:08.822Z,98467.45
2022-09-09T04:42:40.307Z,98464.98
2022-09-09T04:53:09.008Z,98467.61
2022-09-09T05:03:36.997Z,98472.86
2022-09-09T05:14:05.303Z,98478.16
2022-09-09T05:24:34.408Z,98489.28
2022-09-09T05:35:02.653Z,98502.67
2022-09-09T05:45:30.595Z,98497.13
2022-09-09T05:56:07.327Z,98494.58
2022-09-09T06:06:37.984Z,98496.66
2022-09-09T06:17:06.346Z,98497.52
2022-09-09T06:27:34.276Z,98501.73
2022-09-09T06:38:02.143Z,98502.65
2022-09-09T06:48:30.463Z,98499.38
2022-09-09T06:59:00.416Z,98503.67
2022-09-09T07:09:28.607Z,98493.42
2022-09-09T07:19:57.981Z,98485.77
2022-09-09T07:30:27.939Z,98479.06
2022-09-09T07:40:56.141Z,98486.17
2022-09-09T07:51:26.876Z,98488.59
2022-09-09T08:01:56.048Z,98497.70
2022-09-09T08:12:24.510Z,98491.77
2022-09-09T08:22:52.411Z,98497.89
2022-09-09T08:33:20.683Z,98500.55
2022-09-09T08:43:51.516Z,98501.78
2022-09-09T08:54:41.451Z,98501.42
2022-09-09T09:05:22.115Z,98502.05
2022-09-09T09:15:52.853Z,98504.49
2022-09-09T09:26:23.437Z,98491.20
2022-09-09T09:36:58.535Z,98478.15
2022-09-09T09:47:28.120Z,98479.88
2022-09-09T09:57:56.447Z,98488.00
2022-09-09T10:08:25.006Z,98486.89
2022-09-09T10:19:03.184Z,98494.80
2022-09-09T10:29:45.205Z,98511.19
2022-09-09T10:40:33.933Z,98522.64
2022-09-09T10:51:16.805Z,98514.93
2022-09-09T11:01:49.988Z,98509.04
2022-09-09T11:12:22.255Z,98511.27
2022-09-09T11:22:55.701Z,98511.60
2022-09-09T11:33:50.618Z,98514.98
2022-09-09T11:44:26.993Z,98522.37
2022-09-09T11:54:55.258Z,98515.02
2022-09-09T12:05:24.029Z,98513.88
2022-09-09T12:15:54.778Z,98518.70
2022-09-09T12:26:37.481Z,98523.65
2022-09-09T12:37:08.668Z,98527.50
2022-09-09T12:47:42.890Z,98524.79
2022-09-09T12:58:15.931Z,98521.92
2022-09-09T13:08:44.768Z,98515.23
2022-09-09T13:19:16.967Z,98503.97
2022-09-09T13:29:56.964Z,98500.48
2022-09-09T13:40:26.316Z,98487.88
2022-09-09T13:51:00.781Z,98477.92
2022-09-09T14:01:30.024Z,98464.64
2022-09-09T14:11:58.880Z,98454.06
2022-09-09T14:22:27.655Z,98452.83
2022-09-09T14:32:55.570Z,98448.62
2022-09-09T14:43:24.217Z,98453.34
2022-09-09T14:53:55.557Z,98447.94
2022-09-09T15:04:23.770Z,98444.55
2022-09-09T15:14:51.925Z,98446.73
2022-09-09T15:25:20.133Z,98447.58
2022-09-09T15:35:48.004Z,98445.84
2022-09-09T15:46:38.596Z,98456.61
2022-09-09T15:57:09.088Z,98459.30
2022-09-09T16:07:37.505Z,98447.34
2022-09-09T16:18:06.347Z,98443.65
2022-09-09T16:28:35.236Z,98433.86
2022-09-09T16:39:06.061Z,98435.30
2022-09-09T16:49:34.049Z,98431.23
2022-09-09T17:00:02.438Z,98436.26
2022-09-09T17:10:30.507Z,98438.33
2022-09-09T17:20:58.326Z,98444.95
2022-09-09T17:31:27.819Z,98452.58
2022-09-09T17:41:56.381Z,98455.11
2022-09-09T17:52:25.076Z,98458.66
2022-09-09T18:02:52.988Z,98470.05
2022-09-09T18:13:20.978Z,98473.23
2022-09-09T18:23:52.346Z,98481.67
2022-09-09T18:34:22.784Z,98489.58
2022-09-09T18:44:50.762Z,98499.20
2022-09-09T18:55:19.023Z,98508.11
2022-09-09T19:05:55.416Z,98503.08
2022-09-09T19:16:24.799Z,98493.80
2022-09-09T19:26:54.776Z,98485.84
2022-09-09T19:37:23.096Z,98486.45
2022-09-09T19:47:51.316Z,98493.11
2022-09-09T19:58:20.523Z,98497.42
2022-09-09T20:08:49.780Z,98503.35
2022-09-09T20:19:18.375Z,98507.01
2022-09-09T20:29:47.284Z,98498.82
2022-09-09T20:40:15.991Z,98497.33
2022-09-09T20:50:44.747Z,98490.59
2022-09-09T21:01:19.389Z,98485.55
2022-09-09T21:11:47.963Z,98488.95
2022-09-09T21:22:15.928Z,98491.11
2022-09-09T21:32:43.739Z,98486.17
2022-09-09T21:43:13.684Z,98475.86
2022-09-09T21:53:41.721Z,98480.54
2022-09-09T22:04:10.089Z,98476.27
2022-09-09T22:14:38.149Z,98476.53
2022-09-09T22:25:06.869Z,98472.30
2022-09-09T22:35:42.041Z,98479.37
2022-09-09T22:46:10.471Z,98494.96
2022-09-09T22:56:38.382Z,98495.98
2022-09-09T23:07:08.284Z,98503.11
2022-09-09T23:17:36.371Z,98508.43
2022-09-09T23:28:05.074Z,98492.40
2022-09-09T23:38:32.962Z,98447.20
2022-09-09T23:49:02.695Z,98435.41
2022-09-09T23:59:30.760Z,98437.71
